Montrose, Colorado
Current Conditions -  °F | °C
As of 8:53 AM on Thursday 27 Nov 2014 (Local Time) from KMTJ Reporting Station
Clear Clear  
Wind Chill:   Ceiling: Unl
Heat Index:   Visibility: 10mi
Dew Point: -4°   Wind: 3mph
Humidity: 70%   Direction: 120°ESE
Pressure: 30.52"   Gusts: NA
Location:  38.48°N, 107.87°W
Report Text: KMTJ 271553Z AUTO 12003KT 10SM CLR 01/M04 A3052 RMK AO2 SLP338 T00111039
Loading
Personal Weather Stations






























Interactive Weather Map New forecast layout! Learn more

10-Day Weather Forecast

Advertisements
Track Severe Weather on mobile